sensor_id;sensor_type;location;lat;lon;timestamp;P1;durP1;ratioP1;P2;durP2;ratioP2
58908;SDS011;44690;48.154;17.102;2022-08-21T00:00:42;5.22;;;2.35;;
58908;SDS011;44690;48.154;17.102;2022-08-21T00:02:15;2.95;;;1.55;;
58908;SDS011;44690;48.154;17.102;2022-08-21T00:03:53;3.50;;;2.25;;
58908;SDS011;44690;48.154;17.102;2022-08-21T00:05:28;4.78;;;2.05;;
58908;SDS011;44690;48.154;17.102;2022-08-21T00:07:02;2.83;;;1.75;;
58908;SDS011;44690;48.154;17.102;2022-08-21T00:08:34;4.10;;;2.38;;
58908;SDS011;44690;48.154;17.102;2022-08-21T00:10:07;2.72;;;1.80;;
58908;SDS011;44690;48.154;17.102;2022-08-21T00:11:40;4.40;;;2.45;;
58908;SDS011;44690;48.154;17.102;2022-08-21T00:13:12;3.50;;;2.13;;
58908;SDS011;44690;48.154;17.102;2022-08-21T00:14:49;9.10;;;2.20;;
58908;SDS011;44690;48.154;17.102;2022-08-21T00:16:28;6.25;;;2.90;;
58908;SDS011;44690;48.154;17.102;2022-08-21T00:18:00;3.65;;;2.40;;
58908;SDS011;44690;48.154;17.102;2022-08-21T00:19:33;3.80;;;2.42;;
58908;SDS011;44690;48.154;17.102;2022-08-21T00:21:05;5.25;;;2.58;;
58908;SDS011;44690;48.154;17.102;2022-08-21T00:22:38;3.53;;;2.33;;
58908;SDS011;44690;48.154;17.102;2022-08-21T00:24:12;4.05;;;1.83;;
58908;SDS011;44690;48.154;17.102;2022-08-21T00:25:45;4.15;;;2.50;;
58908;SDS011;44690;48.154;17.102;2022-08-21T00:27:17;5.03;;;2.03;;
58908;SDS011;44690;48.154;17.102;2022-08-21T00:28:50;4.63;;;2.55;;
58908;SDS011;44690;48.154;17.102;2022-08-21T00:30:23;3.88;;;2.20;;
58908;SDS011;44690;48.154;17.102;2022-08-21T00:31:57;3.85;;;2.13;;
58908;SDS011;44690;48.154;17.102;2022-08-21T00:33:30;6.72;;;2.17;;
58908;SDS011;44690;48.154;17.102;2022-08-21T00:35:04;4.15;;;2.33;;
58908;SDS011;44690;48.154;17.102;2022-08-21T00:36:38;7.57;;;2.05;;
58908;SDS011;44690;48.154;17.102;2022-08-21T00:38:11;4.32;;;2.30;;
58908;SDS011;44690;48.154;17.102;2022-08-21T00:39:43;3.92;;;1.98;;
58908;SDS011;44690;48.154;17.102;2022-08-21T00:41:16;3.35;;;1.85;;
58908;SDS011;44690;48.154;17.102;2022-08-21T00:43:10;2.75;;;1.70;;
58908;SDS011;44690;48.154;17.102;2022-08-21T00:44:47;3.53;;;1.95;;
58908;SDS011;44690;48.154;17.102;2022-08-21T00:46:20;3.97;;;1.95;;
58908;SDS011;44690;48.154;17.102;2022-08-21T00:47:59;2.70;;;1.75;;
58908;SDS011;44690;48.154;17.102;2022-08-21T00:49:31;5.40;;;2.60;;
58908;SDS011;44690;48.154;17.102;2022-08-21T00:51:05;13.65;;;1.98;;
58908;SDS011;44690;48.154;17.102;2022-08-21T00:52:42;3.97;;;1.92;;
58908;SDS011;44690;48.154;17.102;2022-08-21T00:54:15;2.70;;;1.58;;
58908;SDS011;44690;48.154;17.102;2022-08-21T00:55:50;3.53;;;2.03;;
58908;SDS011;44690;48.154;17.102;2022-08-21T00:57:28;3.47;;;2.00;;
58908;SDS011;44690;48.154;17.102;2022-08-21T00:59:05;2.10;;;1.27;;
58908;SDS011;44690;48.154;17.102;2022-08-21T01:00:39;3.30;;;1.90;;
58908;SDS011;44690;48.154;17.102;2022-08-21T01:02:13;2.65;;;1.75;;
58908;SDS011;44690;48.154;17.102;2022-08-21T01:03:46;5.18;;;1.80;;
58908;SDS011;44690;48.154;17.102;2022-08-21T01:05:21;4.90;;;1.65;;
58908;SDS011;44690;48.154;17.102;2022-08-21T01:06:53;3.08;;;1.52;;
58908;SDS011;44690;48.154;17.102;2022-08-21T01:08:27;3.88;;;1.83;;
58908;SDS011;44690;48.154;17.102;2022-08-21T01:10:01;3.17;;;1.73;;
58908;SDS011;44690;48.154;17.102;2022-08-21T01:11:35;2.85;;;1.60;;
58908;SDS011;44690;48.154;17.102;2022-08-21T01:13:08;2.70;;;1.52;;
58908;SDS011;44690;48.154;17.102;2022-08-21T01:14:41;2.75;;;1.77;;
58908;SDS011;44690;48.154;17.102;2022-08-21T01:16:16;2.65;;;1.55;;
58908;SDS011;44690;48.154;17.102;2022-08-21T01:17:51;3.65;;;1.80;;
58908;SDS011;44690;48.154;17.102;2022-08-21T01:19:24;2.40;;;1.70;;
58908;SDS011;44690;48.154;17.102;2022-08-21T01:21:20;2.63;;;1.73;;
58908;SDS011;44690;48.154;17.102;2022-08-21T01:23:00;2.72;;;1.65;;
58908;SDS011;44690;48.154;17.102;2022-08-21T01:24:34;4.40;;;2.17;;
58908;SDS011;44690;48.154;17.102;2022-08-21T01:26:06;3.88;;;1.95;;
58908;SDS011;44690;48.154;17.102;2022-08-21T01:27:39;4.80;;;1.88;;
58908;SDS011;44690;48.154;17.102;2022-08-21T01:29:22;3.38;;;1.85;;
58908;SDS011;44690;48.154;17.102;2022-08-21T01:31:03;3.22;;;1.70;;
58908;SDS011;44690;48.154;17.102;2022-08-21T01:32:37;2.95;;;1.52;;
58908;SDS011;44690;48.154;17.102;2022-08-21T01:34:10;2.50;;;1.70;;
58908;SDS011;44690;48.154;17.102;2022-08-21T01:35:42;3.33;;;1.90;;
58908;SDS011;44690;48.154;17.102;2022-08-21T01:37:15;2.92;;;1.83;;
58908;SDS011;44690;48.154;17.102;2022-08-21T01:38:48;3.40;;;2.22;;
58908;SDS011;44690;48.154;17.102;2022-08-21T01:40:21;3.95;;;1.95;;
58908;SDS011;44690;48.154;17.102;2022-08-21T01:41:54;6.65;;;2.70;;
58908;SDS011;44690;48.154;17.102;2022-08-21T01:43:26;3.08;;;2.00;;
58908;SDS011;44690;48.154;17.102;2022-08-21T01:45:10;3.03;;;2.15;;
58908;SDS011;44690;48.154;17.102;2022-08-21T01:46:43;2.47;;;1.58;;
58908;SDS011;44690;48.154;17.102;2022-08-21T01:48:16;3.17;;;2.15;;
58908;SDS011;44690;48.154;17.102;2022-08-21T01:49:48;3.63;;;2.17;;
58908;SDS011;44690;48.154;17.102;2022-08-21T01:51:20;3.15;;;1.67;;
58908;SDS011;44690;48.154;17.102;2022-08-21T01:52:52;4.07;;;1.95;;
58908;SDS011;44690;48.154;17.102;2022-08-21T01:54:25;4.47;;;2.08;;
58908;SDS011;44690;48.154;17.102;2022-08-21T01:55:57;4.22;;;1.95;;
58908;SDS011;44690;48.154;17.102;2022-08-21T01:57:30;3.35;;;1.58;;
58908;SDS011;44690;48.154;17.102;2022-08-21T01:59:02;2.95;;;1.90;;
58908;SDS011;44690;48.154;17.102;2022-08-21T02:02:08;3.88;;;1.77;;
58908;SDS011;44690;48.154;17.102;2022-08-21T02:03:40;3.28;;;2.38;;
58908;SDS011;44690;48.154;17.102;2022-08-21T02:05:13;3.80;;;2.10;;
58908;SDS011;44690;48.154;17.102;2022-08-21T02:06:45;5.07;;;1.75;;
58908;SDS011;44690;48.154;17.102;2022-08-21T02:08:18;2.63;;;2.00;;
58908;SDS011;44690;48.154;17.102;2022-08-21T02:11:24;3.90;;;1.88;;
58908;SDS011;44690;48.154;17.102;2022-08-21T02:12:56;2.78;;;1.88;;
58908;SDS011;44690;48.154;17.102;2022-08-21T02:14:30;3.92;;;2.10;;
58908;SDS011;44690;48.154;17.102;2022-08-21T02:16:04;4.80;;;2.63;;
58908;SDS011;44690;48.154;17.102;2022-08-21T02:19:10;2.85;;;1.92;;
58908;SDS011;44690;48.154;17.102;2022-08-21T02:20:45;2.75;;;1.70;;
58908;SDS011;44690;48.154;17.102;2022-08-21T02:22:18;3.85;;;2.22;;
58908;SDS011;44690;48.154;17.102;2022-08-21T02:23:51;3.50;;;1.88;;
58908;SDS011;44690;48.154;17.102;2022-08-21T02:25:24;3.90;;;2.53;;
58908;SDS011;44690;48.154;17.102;2022-08-21T02:26:57;4.00;;;2.50;;
58908;SDS011;44690;48.154;17.102;2022-08-21T02:28:29;3.67;;;2.17;;
58908;SDS011;44690;48.154;17.102;2022-08-21T02:30:03;3.88;;;1.90;;
58908;SDS011;44690;48.154;17.102;2022-08-21T02:31:36;3.13;;;2.13;;
58908;SDS011;44690;48.154;17.102;2022-08-21T02:33:08;3.72;;;2.15;;
58908;SDS011;44690;48.154;17.102;2022-08-21T02:34:43;3.33;;;2.20;;
58908;SDS011;44690;48.154;17.102;2022-08-21T02:36:16;3.65;;;2.22;;
58908;SDS011;44690;48.154;17.102;2022-08-21T02:39:23;7.53;;;2.00;;
58908;SDS011;44690;48.154;17.102;2022-08-21T02:40:58;3.33;;;1.90;;
58908;SDS011;44690;48.154;17.102;2022-08-21T02:42:30;3.72;;;2.33;;
58908;SDS011;44690;48.154;17.102;2022-08-21T02:44:03;3.00;;;1.42;;
58908;SDS011;44690;48.154;17.102;2022-08-21T02:45:35;4.60;;;2.60;;
58908;SDS011;44690;48.154;17.102;2022-08-21T02:47:08;4.30;;;2.28;;
58908;SDS011;44690;48.154;17.102;2022-08-21T02:48:41;4.40;;;2.72;;
58908;SDS011;44690;48.154;17.102;2022-08-21T02:50:16;3.13;;;2.08;;
58908;SDS011;44690;48.154;17.102;2022-08-21T02:51:51;2.92;;;1.88;;
58908;SDS011;44690;48.154;17.102;2022-08-21T02:53:23;3.40;;;1.85;;
58908;SDS011;44690;48.154;17.102;2022-08-21T02:54:56;3.67;;;2.67;;
58908;SDS011;44690;48.154;17.102;2022-08-21T02:56:28;5.80;;;2.70;;
58908;SDS011;44690;48.154;17.102;2022-08-21T02:58:03;4.40;;;2.38;;
58908;SDS011;44690;48.154;17.102;2022-08-21T02:59:37;3.05;;;2.50;;
58908;SDS011;44690;48.154;17.102;2022-08-21T03:01:09;2.95;;;1.83;;
58908;SDS011;44690;48.154;17.102;2022-08-21T03:02:42;3.60;;;2.17;;
58908;SDS011;44690;48.154;17.102;2022-08-21T03:04:14;3.25;;;1.92;;
58908;SDS011;44690;48.154;17.102;2022-08-21T03:05:47;4.13;;;2.03;;
58908;SDS011;44690;48.154;17.102;2022-08-21T03:08:52;4.15;;;2.20;;
58908;SDS011;44690;48.154;17.102;2022-08-21T03:10:24;5.65;;;3.30;;
58908;SDS011;44690;48.154;17.102;2022-08-21T03:11:57;5.45;;;2.85;;
58908;SDS011;44690;48.154;17.102;2022-08-21T03:13:29;3.55;;;1.98;;
58908;SDS011;44690;48.154;17.102;2022-08-21T03:15:03;6.10;;;2.63;;
58908;SDS011;44690;48.154;17.102;2022-08-21T03:16:38;3.53;;;2.10;;
58908;SDS011;44690;48.154;17.102;2022-08-21T03:18:11;3.90;;;2.08;;
58908;SDS011;44690;48.154;17.102;2022-08-21T03:19:44;7.63;;;2.15;;
58908;SDS011;44690;48.154;17.102;2022-08-21T03:21:17;4.60;;;2.55;;
58908;SDS011;44690;48.154;17.102;2022-08-21T03:22:51;3.58;;;2.67;;
58908;SDS011;44690;48.154;17.102;2022-08-21T03:24:24;6.13;;;3.28;;
58908;SDS011;44690;48.154;17.102;2022-08-21T03:25:57;5.97;;;3.28;;
58908;SDS011;44690;48.154;17.102;2022-08-21T03:27:30;4.25;;;2.53;;
58908;SDS011;44690;48.154;17.102;2022-08-21T03:29:02;3.28;;;2.20;;
58908;SDS011;44690;48.154;17.102;2022-08-21T03:30:35;4.93;;;2.92;;
58908;SDS011;44690;48.154;17.102;2022-08-21T03:32:07;5.53;;;3.08;;
58908;SDS011;44690;48.154;17.102;2022-08-21T03:33:41;7.50;;;2.50;;
58908;SDS011;44690;48.154;17.102;2022-08-21T03:35:14;4.00;;;2.47;;
58908;SDS011;44690;48.154;17.102;2022-08-21T03:38:18;6.55;;;3.40;;
58908;SDS011;44690;48.154;17.102;2022-08-21T03:39:57;4.45;;;2.80;;
58908;SDS011;44690;48.154;17.102;2022-08-21T03:41:29;5.15;;;3.63;;
58908;SDS011;44690;48.154;17.102;2022-08-21T03:43:02;5.70;;;3.00;;
58908;SDS011;44690;48.154;17.102;2022-08-21T03:44:34;3.38;;;2.38;;
58908;SDS011;44690;48.154;17.102;2022-08-21T03:46:07;4.95;;;3.25;;
58908;SDS011;44690;48.154;17.102;2022-08-21T03:47:50;3.88;;;2.03;;
58908;SDS011;44690;48.154;17.102;2022-08-21T03:49:32;4.03;;;2.47;;
58908;SDS011;44690;48.154;17.102;2022-08-21T03:51:05;3.85;;;2.53;;
58908;SDS011;44690;48.154;17.102;2022-08-21T03:52:38;7.78;;;2.72;;
58908;SDS011;44690;48.154;17.102;2022-08-21T03:54:10;4.15;;;2.35;;
58908;SDS011;44690;48.154;17.102;2022-08-21T03:55:44;4.10;;;2.20;;
58908;SDS011;44690;48.154;17.102;2022-08-21T03:57:18;4.05;;;2.75;;
58908;SDS011;44690;48.154;17.102;2022-08-21T04:00:23;3.05;;;2.20;;
58908;SDS011;44690;48.154;17.102;2022-08-21T04:01:57;4.95;;;2.40;;
58908;SDS011;44690;48.154;17.102;2022-08-21T04:03:31;3.55;;;2.08;;
58908;SDS011;44690;48.154;17.102;2022-08-21T04:05:06;6.05;;;2.25;;
58908;SDS011;44690;48.154;17.102;2022-08-21T04:06:39;3.90;;;2.53;;
58908;SDS011;44690;48.154;17.102;2022-08-21T04:08:12;2.97;;;2.10;;
58908;SDS011;44690;48.154;17.102;2022-08-21T04:09:45;4.63;;;1.88;;
58908;SDS011;44690;48.154;17.102;2022-08-21T04:11:18;6.45;;;2.75;;
58908;SDS011;44690;48.154;17.102;2022-08-21T04:12:51;3.40;;;2.30;;
58908;SDS011;44690;48.154;17.102;2022-08-21T04:14:24;4.70;;;2.65;;
58908;SDS011;44690;48.154;17.102;2022-08-21T04:15:56;3.78;;;2.35;;
58908;SDS011;44690;48.154;17.102;2022-08-21T04:17:30;3.10;;;1.85;;
58908;SDS011;44690;48.154;17.102;2022-08-21T04:19:03;3.95;;;2.67;;
58908;SDS011;44690;48.154;17.102;2022-08-21T04:20:35;4.30;;;2.25;;
58908;SDS011;44690;48.154;17.102;2022-08-21T04:22:07;5.03;;;2.30;;
58908;SDS011;44690;48.154;17.102;2022-08-21T04:23:40;2.78;;;1.35;;
58908;SDS011;44690;48.154;17.102;2022-08-21T04:25:13;4.63;;;2.17;;
58908;SDS011;44690;48.154;17.102;2022-08-21T04:26:46;4.07;;;2.15;;
58908;SDS011;44690;48.154;17.102;2022-08-21T04:28:19;2.92;;;2.03;;
58908;SDS011;44690;48.154;17.102;2022-08-21T04:29:53;3.28;;;1.85;;
58908;SDS011;44690;48.154;17.102;2022-08-21T04:31:26;3.60;;;1.95;;
58908;SDS011;44690;48.154;17.102;2022-08-21T04:33:00;3.45;;;2.47;;
58908;SDS011;44690;48.154;17.102;2022-08-21T04:34:32;3.45;;;2.28;;
58908;SDS011;44690;48.154;17.102;2022-08-21T04:36:05;3.30;;;2.10;;
58908;SDS011;44690;48.154;17.102;2022-08-21T04:37:38;3.33;;;1.95;;
58908;SDS011;44690;48.154;17.102;2022-08-21T04:39:13;4.15;;;2.63;;
58908;SDS011;44690;48.154;17.102;2022-08-21T04:40:47;3.40;;;1.90;;
58908;SDS011;44690;48.154;17.102;2022-08-21T04:42:20;3.38;;;2.38;;
58908;SDS011;44690;48.154;17.102;2022-08-21T04:43:52;2.63;;;1.48;;
58908;SDS011;44690;48.154;17.102;2022-08-21T04:45:31;4.30;;;1.75;;
58908;SDS011;44690;48.154;17.102;2022-08-21T04:47:06;3.08;;;1.75;;
58908;SDS011;44690;48.154;17.102;2022-08-21T04:48:38;5.28;;;2.05;;
58908;SDS011;44690;48.154;17.102;2022-08-21T04:50:10;3.05;;;2.20;;
58908;SDS011;44690;48.154;17.102;2022-08-21T04:51:57;2.03;;;1.20;;
58908;SDS011;44690;48.154;17.102;2022-08-21T04:55:19;3.45;;;2.15;;
58908;SDS011;44690;48.154;17.102;2022-08-21T04:56:54;3.28;;;1.92;;
58908;SDS011;44690;48.154;17.102;2022-08-21T04:58:31;3.75;;;2.08;;
58908;SDS011;44690;48.154;17.102;2022-08-21T05:00:04;2.88;;;1.95;;
58908;SDS011;44690;48.154;17.102;2022-08-21T05:01:44;3.72;;;1.40;;
58908;SDS011;44690;48.154;17.102;2022-08-21T05:03:17;5.03;;;1.90;;
58908;SDS011;44690;48.154;17.102;2022-08-21T05:04:51;2.92;;;1.98;;
58908;SDS011;44690;48.154;17.102;2022-08-21T05:06:28;6.78;;;1.92;;
58908;SDS011;44690;48.154;17.102;2022-08-21T05:08:03;3.38;;;1.90;;
58908;SDS011;44690;48.154;17.102;2022-08-21T05:09:37;2.60;;;1.58;;
58908;SDS011;44690;48.154;17.102;2022-08-21T05:11:11;4.00;;;1.70;;
58908;SDS011;44690;48.154;17.102;2022-08-21T05:12:43;3.03;;;2.05;;
58908;SDS011;44690;48.154;17.102;2022-08-21T05:14:16;3.10;;;1.98;;
58908;SDS011;44690;48.154;17.102;2022-08-21T05:15:49;4.03;;;2.40;;
58908;SDS011;44690;48.154;17.102;2022-08-21T05:17:21;2.88;;;2.05;;
58908;SDS011;44690;48.154;17.102;2022-08-21T05:18:54;2.95;;;2.03;;
58908;SDS011;44690;48.154;17.102;2022-08-21T05:20:27;3.92;;;2.38;;
58908;SDS011;44690;48.154;17.102;2022-08-21T05:22:00;3.55;;;2.08;;
58908;SDS011;44690;48.154;17.102;2022-08-21T05:25:05;4.70;;;2.17;;
58908;SDS011;44690;48.154;17.102;2022-08-21T05:26:41;2.70;;;1.77;;
58908;SDS011;44690;48.154;17.102;2022-08-21T05:28:17;3.13;;;2.17;;
58908;SDS011;44690;48.154;17.102;2022-08-21T05:29:50;3.05;;;1.65;;
58908;SDS011;44690;48.154;17.102;2022-08-21T05:31:23;2.90;;;1.98;;
58908;SDS011;44690;48.154;17.102;2022-08-21T05:32:58;3.35;;;2.17;;
58908;SDS011;44690;48.154;17.102;2022-08-21T05:34:32;2.55;;;1.55;;
58908;SDS011;44690;48.154;17.102;2022-08-21T05:36:04;4.43;;;2.28;;
58908;SDS011;44690;48.154;17.102;2022-08-21T05:37:37;3.15;;;1.60;;
58908;SDS011;44690;48.154;17.102;2022-08-21T05:39:09;3.67;;;2.25;;
58908;SDS011;44690;48.154;17.102;2022-08-21T05:43:47;3.72;;;1.80;;
58908;SDS011;44690;48.154;17.102;2022-08-21T05:45:20;2.33;;;1.27;;
58908;SDS011;44690;48.154;17.102;2022-08-21T05:47:14;3.33;;;1.85;;
58908;SDS011;44690;48.154;17.102;2022-08-21T05:48:47;3.95;;;1.70;;
58908;SDS011;44690;48.154;17.102;2022-08-21T05:50:19;3.03;;;1.73;;
58908;SDS011;44690;48.154;17.102;2022-08-21T05:51:52;3.88;;;1.98;;
58908;SDS011;44690;48.154;17.102;2022-08-21T05:53:24;9.55;;;2.33;;
58908;SDS011;44690;48.154;17.102;2022-08-21T05:54:57;2.70;;;1.70;;
58908;SDS011;44690;48.154;17.102;2022-08-21T05:56:29;4.85;;;1.95;;
58908;SDS011;44690;48.154;17.102;2022-08-21T05:58:01;3.67;;;1.60;;
58908;SDS011;44690;48.154;17.102;2022-08-21T05:59:34;1.98;;;1.40;;
58908;SDS011;44690;48.154;17.102;2022-08-21T06:01:06;2.88;;;1.63;;
58908;SDS011;44690;48.154;17.102;2022-08-21T06:02:40;3.17;;;1.88;;
58908;SDS011;44690;48.154;17.102;2022-08-21T06:04:12;2.95;;;1.83;;
58908;SDS011;44690;48.154;17.102;2022-08-21T06:05:45;2.90;;;1.58;;
58908;SDS011;44690;48.154;17.102;2022-08-21T06:08:52;5.45;;;1.70;;
58908;SDS011;44690;48.154;17.102;2022-08-21T06:10:24;2.60;;;1.33;;
58908;SDS011;44690;48.154;17.102;2022-08-21T06:13:29;2.47;;;1.50;;
58908;SDS011;44690;48.154;17.102;2022-08-21T06:15:02;2.30;;;1.23;;
58908;SDS011;44690;48.154;17.102;2022-08-21T06:16:34;2.40;;;1.13;;
58908;SDS011;44690;48.154;17.102;2022-08-21T06:19:39;3.95;;;1.33;;
58908;SDS011;44690;48.154;17.102;2022-08-21T06:21:11;2.50;;;1.20;;
58908;SDS011;44690;48.154;17.102;2022-08-21T06:22:45;2.25;;;1.40;;
58908;SDS011;44690;48.154;17.102;2022-08-21T06:25:50;2.70;;;1.60;;
58908;SDS011;44690;48.154;17.102;2022-08-21T06:27:22;1.50;;;0.90;;
58908;SDS011;44690;48.154;17.102;2022-08-21T06:28:57;2.65;;;1.90;;
58908;SDS011;44690;48.154;17.102;2022-08-21T06:30:30;2.20;;;1.30;;
58908;SDS011;44690;48.154;17.102;2022-08-21T06:32:03;1.67;;;1.00;;
58908;SDS011;44690;48.154;17.102;2022-08-21T06:33:41;2.38;;;1.30;;
58908;SDS011;44690;48.154;17.102;2022-08-21T06:35:14;2.20;;;1.20;;
58908;SDS011;44690;48.154;17.102;2022-08-21T06:38:18;1.92;;;1.23;;
58908;SDS011;44690;48.154;17.102;2022-08-21T06:41:24;2.05;;;1.52;;
58908;SDS011;44690;48.154;17.102;2022-08-21T06:42:58;2.00;;;1.23;;
58908;SDS011;44690;48.154;17.102;2022-08-21T06:44:36;1.92;;;1.30;;
58908;SDS011;44690;48.154;17.102;2022-08-21T06:46:09;1.90;;;1.33;;
58908;SDS011;44690;48.154;17.102;2022-08-21T06:47:41;2.50;;;1.40;;
58908;SDS011;44690;48.154;17.102;2022-08-21T06:49:13;1.95;;;1.10;;
58908;SDS011;44690;48.154;17.102;2022-08-21T06:50:52;2.17;;;1.30;;
58908;SDS011;44690;48.154;17.102;2022-08-21T06:52:24;2.03;;;1.10;;
58908;SDS011;44690;48.154;17.102;2022-08-21T06:55:30;3.30;;;1.25;;
58908;SDS011;44690;48.154;17.102;2022-08-21T06:57:03;2.20;;;1.42;;
58908;SDS011;44690;48.154;17.102;2022-08-21T07:00:08;1.85;;;1.10;;
58908;SDS011;44690;48.154;17.102;2022-08-21T07:01:42;1.85;;;1.00;;
58908;SDS011;44690;48.154;17.102;2022-08-21T07:03:22;2.00;;;0.85;;
58908;SDS011;44690;48.154;17.102;2022-08-21T07:04:56;1.25;;;0.65;;
58908;SDS011;44690;48.154;17.102;2022-08-21T07:06:29;1.73;;;1.00;;
58908;SDS011;44690;48.154;17.102;2022-08-21T07:08:05;1.83;;;1.08;;
58908;SDS011;44690;48.154;17.102;2022-08-21T07:09:37;1.77;;;1.00;;
58908;SDS011;44690;48.154;17.102;2022-08-21T07:11:13;1.60;;;0.82;;
58908;SDS011;44690;48.154;17.102;2022-08-21T07:12:49;2.00;;;1.00;;
58908;SDS011;44690;48.154;17.102;2022-08-21T07:14:32;1.70;;;1.10;;
58908;SDS011;44690;48.154;17.102;2022-08-21T07:16:04;1.85;;;0.90;;
58908;SDS011;44690;48.154;17.102;2022-08-21T07:17:38;3.92;;;1.60;;
58908;SDS011;44690;48.154;17.102;2022-08-21T07:19:10;2.90;;;1.58;;
58908;SDS011;44690;48.154;17.102;2022-08-21T07:20:43;2.78;;;1.10;;
58908;SDS011;44690;48.154;17.102;2022-08-21T07:22:15;1.73;;;0.82;;
58908;SDS011;44690;48.154;17.102;2022-08-21T07:23:51;1.25;;;0.95;;
58908;SDS011;44690;48.154;17.102;2022-08-21T07:25:24;1.50;;;0.80;;
58908;SDS011;44690;48.154;17.102;2022-08-21T07:26:57;1.95;;;1.25;;
58908;SDS011;44690;48.154;17.102;2022-08-21T07:28:31;2.60;;;1.33;;
58908;SDS011;44690;48.154;17.102;2022-08-21T07:30:04;2.83;;;1.38;;
58908;SDS011;44690;48.154;17.102;2022-08-21T07:31:37;2.60;;;0.85;;
58908;SDS011;44690;48.154;17.102;2022-08-21T07:33:10;3.10;;;0.75;;
58908;SDS011;44690;48.154;17.102;2022-08-21T07:34:43;2.38;;;1.20;;
58908;SDS011;44690;48.154;17.102;2022-08-21T07:36:16;2.03;;;1.10;;
58908;SDS011;44690;48.154;17.102;2022-08-21T07:37:49;2.55;;;1.23;;
58908;SDS011;44690;48.154;17.102;2022-08-21T07:39:21;2.45;;;1.23;;
58908;SDS011;44690;48.154;17.102;2022-08-21T07:40:54;1.90;;;1.00;;
58908;SDS011;44690;48.154;17.102;2022-08-21T07:42:28;2.22;;;1.42;;
58908;SDS011;44690;48.154;17.102;2022-08-21T07:44:00;2.08;;;1.20;;
58908;SDS011;44690;48.154;17.102;2022-08-21T07:45:33;2.10;;;1.20;;
58908;SDS011;44690;48.154;17.102;2022-08-21T07:47:05;1.42;;;0.98;;
58908;SDS011;44690;48.154;17.102;2022-08-21T07:48:38;1.50;;;1.10;;
58908;SDS011;44690;48.154;17.102;2022-08-21T07:50:11;1.63;;;1.00;;
58908;SDS011;44690;48.154;17.102;2022-08-21T07:51:45;1.48;;;1.00;;
58908;SDS011;44690;48.154;17.102;2022-08-21T07:53:17;1.77;;;0.90;;
58908;SDS011;44690;48.154;17.102;2022-08-21T07:54:49;2.90;;;1.70;;
58908;SDS011;44690;48.154;17.102;2022-08-21T07:56:24;1.95;;;1.30;;
58908;SDS011;44690;48.154;17.102;2022-08-21T07:57:57;1.65;;;0.90;;
58908;SDS011;44690;48.154;17.102;2022-08-21T07:59:29;2.13;;;0.80;;
58908;SDS011;44690;48.154;17.102;2022-08-21T08:01:01;2.28;;;1.38;;
58908;SDS011;44690;48.154;17.102;2022-08-21T08:02:34;2.00;;;1.02;;
58908;SDS011;44690;48.154;17.102;2022-08-21T08:04:07;2.75;;;1.35;;
58908;SDS011;44690;48.154;17.102;2022-08-21T08:05:39;1.88;;;1.15;;
58908;SDS011;44690;48.154;17.102;2022-08-21T08:07:11;5.60;;;1.80;;
58908;SDS011;44690;48.154;17.102;2022-08-21T08:08:44;2.20;;;1.33;;
58908;SDS011;44690;48.154;17.102;2022-08-21T08:10:17;2.53;;;1.33;;
58908;SDS011;44690;48.154;17.102;2022-08-21T08:11:50;2.28;;;1.30;;
58908;SDS011;44690;48.154;17.102;2022-08-21T08:14:58;2.03;;;1.03;;
58908;SDS011;44690;48.154;17.102;2022-08-21T08:16:31;1.70;;;1.15;;
58908;SDS011;44690;48.154;17.102;2022-08-21T08:18:04;1.20;;;0.85;;
58908;SDS011;44690;48.154;17.102;2022-08-21T08:21:08;2.53;;;1.50;;
58908;SDS011;44690;48.154;17.102;2022-08-21T08:22:42;2.30;;;1.20;;
58908;SDS011;44690;48.154;17.102;2022-08-21T08:24:21;2.80;;;1.50;;
58908;SDS011;44690;48.154;17.102;2022-08-21T08:25:53;2.13;;;1.20;;
58908;SDS011;44690;48.154;17.102;2022-08-21T08:28:58;2.28;;;1.10;;
58908;SDS011;44690;48.154;17.102;2022-08-21T08:30:30;1.95;;;1.08;;
58908;SDS011;44690;48.154;17.102;2022-08-21T08:32:04;2.13;;;1.20;;
58908;SDS011;44690;48.154;17.102;2022-08-21T08:33:39;2.05;;;1.23;;
58908;SDS011;44690;48.154;17.102;2022-08-21T08:35:12;4.30;;;1.27;;
58908;SDS011;44690;48.154;17.102;2022-08-21T08:36:44;4.13;;;1.60;;
58908;SDS011;44690;48.154;17.102;2022-08-21T08:38:17;2.78;;;1.58;;
58908;SDS011;44690;48.154;17.102;2022-08-21T08:39:55;3.05;;;1.48;;
58908;SDS011;44690;48.154;17.102;2022-08-21T08:41:28;3.60;;;1.20;;
58908;SDS011;44690;48.154;17.102;2022-08-21T08:43:01;2.17;;;1.20;;
58908;SDS011;44690;48.154;17.102;2022-08-21T08:44:34;2.42;;;1.25;;
58908;SDS011;44690;48.154;17.102;2022-08-21T08:47:45;3.58;;;1.73;;
58908;SDS011;44690;48.154;17.102;2022-08-21T08:49:27;2.17;;;1.30;;
58908;SDS011;44690;48.154;17.102;2022-08-21T08:51:08;5.40;;;1.58;;
58908;SDS011;44690;48.154;17.102;2022-08-21T08:52:49;2.65;;;1.38;;
58908;SDS011;44690;48.154;17.102;2022-08-21T08:54:39;2.85;;;1.85;;
58908;SDS011;44690;48.154;17.102;2022-08-21T08:56:18;2.38;;;1.35;;
58908;SDS011;44690;48.154;17.102;2022-08-21T08:57:55;2.80;;;1.65;;
58908;SDS011;44690;48.154;17.102;2022-08-21T08:59:37;3.30;;;1.23;;
58908;SDS011;44690;48.154;17.102;2022-08-21T09:01:18;3.53;;;1.33;;
58908;SDS011;44690;48.154;17.102;2022-08-21T09:02:52;3.60;;;1.92;;
58908;SDS011;44690;48.154;17.102;2022-08-21T09:04:28;4.35;;;1.88;;
58908;SDS011;44690;48.154;17.102;2022-08-21T09:07:46;3.60;;;1.70;;
58908;SDS011;44690;48.154;17.102;2022-08-21T09:11:29;3.00;;;1.75;;
58908;SDS011;44690;48.154;17.102;2022-08-21T09:14:58;2.58;;;1.30;;
58908;SDS011;44690;48.154;17.102;2022-08-21T09:16:43;4.90;;;1.83;;
58908;SDS011;44690;48.154;17.102;2022-08-21T09:21:53;2.97;;;1.52;;
58908;SDS011;44690;48.154;17.102;2022-08-21T09:23:55;4.00;;;2.40;;
58908;SDS011;44690;48.154;17.102;2022-08-21T09:26:18;2.92;;;1.88;;
58908;SDS011;44690;48.154;17.102;2022-08-21T09:27:32;4.97;;;1.90;;
58908;SDS011;44690;48.154;17.102;2022-08-21T09:29:04;3.22;;;1.90;;
58908;SDS011;44690;48.154;17.102;2022-08-21T09:30:38;3.92;;;1.67;;
58908;SDS011;44690;48.154;17.102;2022-08-21T09:34:09;3.70;;;2.03;;
58908;SDS011;44690;48.154;17.102;2022-08-21T09:35:53;2.78;;;1.83;;
58908;SDS011;44690;48.154;17.102;2022-08-21T09:37:27;13.80;;;2.38;;
58908;SDS011;44690;48.154;17.102;2022-08-21T09:39:02;6.55;;;2.03;;
58908;SDS011;44690;48.154;17.102;2022-08-21T09:42:08;2.88;;;1.23;;
58908;SDS011;44690;48.154;17.102;2022-08-21T09:43:51;2.33;;;1.23;;
58908;SDS011;44690;48.154;17.102;2022-08-21T09:45:25;3.20;;;2.08;;
58908;SDS011;44690;48.154;17.102;2022-08-21T09:48:37;4.28;;;1.30;;
58908;SDS011;44690;48.154;17.102;2022-08-21T09:50:23;2.47;;;1.50;;
58908;SDS011;44690;48.154;17.102;2022-08-21T09:52:01;2.33;;;1.42;;
58908;SDS011;44690;48.154;17.102;2022-08-21T09:53:37;2.72;;;1.67;;
58908;SDS011;44690;48.154;17.102;2022-08-21T09:55:16;2.67;;;1.60;;
58908;SDS011;44690;48.154;17.102;2022-08-21T09:57:14;5.30;;;2.35;;
58908;SDS011;44690;48.154;17.102;2022-08-21T09:59:25;3.28;;;1.98;;
58908;SDS011;44690;48.154;17.102;2022-08-21T10:01:11;2.60;;;1.50;;
58908;SDS011;44690;48.154;17.102;2022-08-21T10:02:54;6.43;;;2.28;;
58908;SDS011;44690;48.154;17.102;2022-08-21T10:04:30;3.45;;;1.40;;
58908;SDS011;44690;48.154;17.102;2022-08-21T10:06:05;7.65;;;1.48;;
58908;SDS011;44690;48.154;17.102;2022-08-21T10:07:40;2.30;;;1.40;;
58908;SDS011;44690;48.154;17.102;2022-08-21T10:09:17;3.03;;;1.60;;
58908;SDS011;44690;48.154;17.102;2022-08-21T10:10:57;3.35;;;1.77;;